Darstellungsparameter: Aktuell verwendete Einstellungen:
Skalierung der Graphiken ... ?
xyx+y,   Skalierungsfaktor:      Skalierung: Modus: x, Faktor: 1
Darstellungszeitraum ... ?
Vom - - bis: - -   Zeitraum: 04.06.2011 - 06.06.2011
Min/Max/Avg-Anzeige ... ?
Zeige MMA aktuell
Zeige MMA Monat
Zeige MMA alles
Zeige --A aktuell
Zeige --A Monat
Zeige --A alles
Keine MMA-Anzeige
MMA:
Keine MMA-Graphiken
MMA-Basis: 04.06.2011 - 06.06.2011
Quicknavigation für Darstellung... ?
Tage:      1T, 2T, 3T, 5T -1T -2T -3T -5T +1T +2T +3T +5T
Wochen: 1W, 2W, 3W -1W -2W -3W +1W +2W +3W
Monate: 1M, 3M, 6M -1M -3M -6M +1M +3M +6M
Jahre:    1J, 3J, 5J, 10J -1J -3J -5J -10J +1J +3J +5J +10J
Nutze für die Darstellung ... ?
Originaldaten oder Mittelwerte auf ...
Stundenbasis Tagesbasis Wochenbasis
Monatsbasis Jahresbasis      Datenbasis: Original-Daten
Darstellen als:
Statistik (Auto) Statistik J:M      Darstellung:
Zur Graphik,    zurück zur Übersicht aller Sensoren.
 
Tabellarische Datenbersicht: ?
 
Sensor: Nr:Datum:Temp:Abs-Feuchte:Windchill:Wind:
Aussen-T/F 1 04-06-2011 00:04:06 17.7 C 8.45 g/m*3 17.7 C 0 km/h
2 04-06-2011 00:16:06 17.3 C 8.4 g/m*3 17.3 C 0 km/h
3 04-06-2011 00:28:06 17.4 C 8.6 g/m*3 17.4 C 0 km/h
4 04-06-2011 00:40:06 17.4 C 8.45 g/m*3 17.4 C 0 km/h
5 04-06-2011 00:52:06 17.4 C 8.74 g/m*3 17.4 C 0 km/h
6 04-06-2011 01:04:06 17 C 8.39 g/m*3 17 C 0 km/h
7 04-06-2011 01:16:06 17.1 C 8.73 g/m*3 17.1 C 0 km/h
8 04-06-2011 01:28:06 17.1 C 8.59 g/m*3 17.1 C 0 km/h
9 04-06-2011 01:40:06 16.8 C 8.58 g/m*3 16.8 C 0 km/h
10 04-06-2011 01:52:07 16.8 C 8.58 g/m*3 16.8 C 0 km/h
11 04-06-2011 02:04:07 16.4 C 8.37 g/m*3 16.4 C 0 km/h
12 04-06-2011 02:16:07 16.3 C 8.46 g/m*3 16.3 C 0 km/h
13 04-06-2011 02:28:07 16 C 8.58 g/m*3 16 C 0 km/h
14 04-06-2011 02:40:07 16 C 8.45 g/m*3 16 C 0 km/h
15 04-06-2011 02:52:07 15.9 C 8.53 g/m*3 15.9 C 0 km/h
16 04-06-2011 03:04:07 15.8 C 8.48 g/m*3 15.8 C 0 km/h
17 04-06-2011 03:16:07 15.8 C 8.62 g/m*3 15.8 C 0 km/h
18 04-06-2011 03:28:07 15.6 C 8.51 g/m*3 15.6 C 0 km/h
19 04-06-2011 03:40:07 15.6 C 8.51 g/m*3 15.6 C 0 km/h
20 04-06-2011 03:52:07 15.4 C 8.41 g/m*3 15.4 C 0 km/h
21 04-06-2011 04:04:07 15.3 C 8.36 g/m*3 15.3 C 0 km/h
22 04-06-2011 04:16:07 15.2 C 8.31 g/m*3 15.2 C 0 km/h
23 04-06-2011 04:28:07 15 C 8.33 g/m*3 15 C 0 km/h
24 04-06-2011 04:40:07 14.9 C 8.54 g/m*3 14.9 C 0 km/h
25 04-06-2011 04:52:07 15 C 8.33 g/m*3 15 C 0 km/h
Sensor: Nr:Datum:Temp:Abs-Feuchte:Windchill:Wind:
Aussen-T/F 26 04-06-2011 05:04:07 14.9 C 8.41 g/m*3 14.9 C 0 km/h
27 04-06-2011 05:16:07 14.7 C 8.31 g/m*3 14.7 C 0 km/h
28 04-06-2011 05:28:07 14.8 C 8.49 g/m*3 14.8 C 0 km/h
29 04-06-2011 05:40:07 15 C 8.33 g/m*3 15 C 0 km/h
30 04-06-2011 05:52:08 14.8 C 8.36 g/m*3 14.8 C 0 km/h
31 04-06-2011 06:04:08 15 C 8.46 g/m*3 15 C 0 km/h
32 04-06-2011 06:16:08 15 C 8.59 g/m*3 15 C 0 km/h
33 04-06-2011 06:28:08 15.2 C 8.7 g/m*3 15.2 C 0 km/h
34 04-06-2011 06:40:08 15.7 C 8.83 g/m*3 15.7 C 0 km/h
35 04-06-2011 06:52:08 16 C 8.86 g/m*3 16 C 0 km/h
36 04-06-2011 07:04:08 16.7 C 9.1 g/m*3 16.7 C 0 km/h
37 04-06-2011 07:16:08 17.4 C 9.04 g/m*3 17.4 C 0 km/h
38 04-06-2011 07:28:08 18.1 C 9.12 g/m*3 18.1 C 0 km/h
39 04-06-2011 07:40:08 18.6 C 9.39 g/m*3 18.6 C 0 km/h
40 04-06-2011 07:52:08 18.6 C 9.39 g/m*3 18.6 C 0 km/h
41 04-06-2011 08:04:08 18.5 C 9.18 g/m*3 18.5 C 0 km/h
42 04-06-2011 08:16:08 18.4 C 9.28 g/m*3 18.4 C 0 km/h
43 04-06-2011 08:28:08 18.3 C 9.54 g/m*3 18.3 C 0 km/h
44 04-06-2011 08:40:08 19 C 9.45 g/m*3 19 C 0 km/h
45 04-06-2011 08:52:02 20 C 9.51 g/m*3 20 C 0 km/h
46 04-06-2011 09:04:02 20.3 C 9.67 g/m*3 20.3 C 0 km/h
47 04-06-2011 09:16:02 20.8 C 9.96 g/m*3 20.8 C 0 km/h
48 04-06-2011 09:28:02 21.9 C 9.26 g/m*3 21.9 C 0 km/h
49 04-06-2011 09:40:02 22.6 C 9.24 g/m*3 22.6 C 0 km/h
50 04-06-2011 09:52:02 22.6 C 8.84 g/m*3 22.6 C 0 km/h
Sensor: Nr:Datum:Temp:Abs-Feuchte:Windchill:Wind:
Aussen-T/F 51 04-06-2011 10:04:02 22.9 C 9.4 g/m*3 22.9 C 0 km/h
52 04-06-2011 10:16:01 23.5 C 8.88 g/m*3 23.5 C 0 km/h
53 04-06-2011 10:28:01 24 C 8.49 g/m*3 24 C 0 km/h
54 04-06-2011 10:40:02 24 C 9.14 g/m*3 24 C 0 km/h
55 04-06-2011 10:52:03 24.4 C 8.23 g/m*3 24.4 C 0 km/h
56 04-06-2011 11:04:02 25 C 8.75 g/m*3 25 C 0 km/h
57 04-06-2011 11:16:02 25.3 C 8.43 g/m*3 25.3 C 0 km/h
58 04-06-2011 11:28:02 25.8 C 8.67 g/m*3 25.8 C 0 km/h
59 04-06-2011 11:40:03 26.2 C 8.37 g/m*3 26.2 C 0 km/h
60 04-06-2011 11:52:02 27 C 7.98 g/m*3 27 C 0 km/h
61 04-06-2011 12:04:02 27.4 C 7.89 g/m*3 27.4 C 0 km/h
62 04-06-2011 12:16:02 27.3 C 7.85 g/m*3 27.3 C 0 km/h
63 04-06-2011 12:28:02 27.3 C 7.85 g/m*3 27.3 C 0 km/h
64 04-06-2011 12:40:02 27.4 C 8.16 g/m*3 27.4 C 0 km/h
65 04-06-2011 12:52:02 27.8 C 8.07 g/m*3 27.8 C 0 km/h
66 04-06-2011 13:04:02 28.1 C 7.66 g/m*3 28.1 C 0 km/h
67 04-06-2011 13:16:02 28.7 C 7.91 g/m*3 28.7 C 0 km/h
68 04-06-2011 13:28:02 31.3 C 7.15 g/m*3 31.3 C 0 km/h
69 04-06-2011 13:40:02 32 C 6.75 g/m*3 32 C 0 km/h
70 04-06-2011 13:52:02 32.9 C 7.08 g/m*3 32.9 C 0 km/h
71 04-06-2011 14:04:02 33.2 C 7.2 g/m*3 33.2 C 0 km/h
72 04-06-2011 14:16:02 31.8 C 6.68 g/m*3 31.8 C 0 km/h
73 04-06-2011 14:28:02 33.2 C 7.2 g/m*3 33.2 C 0 km/h
74 04-06-2011 14:40:02 33 C 7.12 g/m*3 33 C 0 km/h
75 04-06-2011 14:52:02 32.3 C 6.86 g/m*3 32.3 C 0 km/h
Sensor: Nr:Datum:Temp:Abs-Feuchte:Windchill:Wind:
Aussen-T/F 76 04-06-2011 15:04:02 31.2 C 7.12 g/m*3 31.2 C 0 km/h
77 04-06-2011 15:16:02 32.6 C 6.97 g/m*3 32.6 C 0 km/h
78 04-06-2011 15:28:03 30.6 C 7.2 g/m*3 30.6 C 0 km/h
79 04-06-2011 15:40:01 30.4 C 8.06 g/m*3 30.4 C 0 km/h
80 04-06-2011 15:52:02 30.1 C 7.93 g/m*3 30.1 C 0 km/h
81 04-06-2011 16:04:01 30.2 C 7.97 g/m*3 30.2 C 0 km/h
82 04-06-2011 16:16:02 30.4 C 7.75 g/m*3 30.4 C 0 km/h
83 04-06-2011 16:28:02 26.5 C 7.01 g/m*3 26.5 C 0 km/h
84 04-06-2011 16:40:01 21.6 C 12.14 g/m*3 21.6 C 0 km/h
85 04-06-2011 16:52:02 20.7 C 13.14 g/m*3 20.7 C 0 km/h
86 04-06-2011 17:04:02 20.8 C 13.4 g/m*3 20.8 C 0 km/h
87 04-06-2011 17:16:02 23.6 C 14.25 g/m*3 23.6 C 0 km/h
88 04-06-2011 17:28:02 24.8 C 13.88 g/m*3 24.8 C 0 km/h
89 04-06-2011 17:40:02 24.6 C 13.73 g/m*3 24.6 C 0 km/h
90 04-06-2011 17:52:02 23.1 C 13.23 g/m*3 23.1 C 0 km/h
91 04-06-2011 18:04:02 22.6 C 13.86 g/m*3 22.6 C 0 km/h
92 04-06-2011 18:16:02 22.1 C 13.66 g/m*3 22.1 C 0 km/h
93 04-06-2011 18:28:02 21.4 C 13.5 g/m*3 21.4 C 0 km/h
94 04-06-2011 18:40:01 20.4 C 13.09 g/m*3 20.4 C 0 km/h
95 04-06-2011 18:52:02 20.1 C 13.04 g/m*3 20.1 C 0 km/h
96 04-06-2011 19:04:01 20.3 C 13.37 g/m*3 20.3 C 0 km/h
97 04-06-2011 19:16:01 20.9 C 13.48 g/m*3 20.9 C 0 km/h
98 04-06-2011 19:28:01 20.9 C 13.11 g/m*3 20.9 C 0 km/h
99 04-06-2011 19:40:02 20.6 C 12.89 g/m*3 20.6 C 0 km/h
100 04-06-2011 19:52:02 20.4 C 12.56 g/m*3 20.4 C 0 km/h
Sensor: Nr:Datum:Temp:Abs-Feuchte:Windchill:Wind:
Aussen-T/F 101 04-06-2011 20:04:02 20.5 C 12.46 g/m*3 20.5 C 0 km/h
102 04-06-2011 20:16:02 20.5 C 12.28 g/m*3 20.5 C 0 km/h
103 04-06-2011 20:28:02 20.4 C 12.38 g/m*3 20.4 C 0 km/h
104 04-06-2011 20:40:02 20.4 C 12.38 g/m*3 20.4 C 0 km/h
105 04-06-2011 20:52:02 20.3 C 12.49 g/m*3 20.3 C 0 km/h
106 04-06-2011 21:04:02 20 C 12.27 g/m*3 20 C 0 km/h
107 04-06-2011 21:16:02 19.5 C 12.75 g/m*3 19.5 C 0 km/h
108 04-06-2011 21:28:02 19.4 C 12.68 g/m*3 19.4 C 0 km/h
109 04-06-2011 21:40:02 19.6 C 12.32 g/m*3 19.6 C 0 km/h
110 04-06-2011 21:52:01 19.4 C 12.35 g/m*3 19.4 C 0 km/h
111 04-06-2011 22:04:01 19.4 C 12.01 g/m*3 19.4 C 0 km/h
112 04-06-2011 22:17:02 18.8 C 12.88 g/m*3 18.8 C 0 km/h
113 04-06-2011 22:29:02 18.4 C 12.9 g/m*3 18.4 C 0 km/h
114 04-06-2011 22:41:02 18.1 C 12.82 g/m*3 18.1 C 0 km/h
115 04-06-2011 22:53:03 18.1 C 12.98 g/m*3 18.1 C 0 km/h
116 04-06-2011 23:05:03 18 C 13.06 g/m*3 18 C 0 km/h
117 04-06-2011 23:17:03 18.1 C 13.13 g/m*3 18.1 C 0 km/h
118 04-06-2011 23:29:03 18 C 13.21 g/m*3 18 C 0 km/h
119 04-06-2011 23:41:03 17.9 C 13.28 g/m*3 17.9 C 0 km/h
120 04-06-2011 23:53:03 17.9 C 13.44 g/m*3 17.9 C 0 km/h
121 05-06-2011 00:05:03 17.9 C 13.44 g/m*3 17.9 C 0 km/h
122 05-06-2011 00:17:03 17.9 C 13.44 g/m*3 17.9 C 0 km/h
123 05-06-2011 00:29:03 17.7 C 13.28 g/m*3 17.7 C 0 km/h
124 05-06-2011 00:41:03 17.8 C 13.36 g/m*3 17.8 C 0 km/h
125 05-06-2011 00:53:03 17.7 C 13.28 g/m*3 17.7 C 0 km/h
Sensor: Nr:Datum:Temp:Abs-Feuchte:Windchill:Wind:
Aussen-T/F 126 05-06-2011 01:05:03 17.6 C 13.2 g/m*3 17.6 C 0 km/h
127 05-06-2011 01:17:03 17.4 C 13.04 g/m*3 17.4 C 0 km/h
128 05-06-2011 01:29:03 17.5 C 13.12 g/m*3 17.5 C 0 km/h
129 05-06-2011 01:41:03 17.2 C 12.89 g/m*3 17.2 C 0 km/h
130 05-06-2011 01:53:03 17 C 12.73 g/m*3 17 C 0 km/h
131 05-06-2011 02:05:03 16.9 C 12.8 g/m*3 16.9 C 0 km/h
132 05-06-2011 02:17:03 16.7 C 12.65 g/m*3 16.7 C 0 km/h
133 05-06-2011 02:29:03 16.5 C 12.5 g/m*3 16.5 C 0 km/h
134 05-06-2011 02:41:03 16.3 C 12.35 g/m*3 16.3 C 0 km/h
135 05-06-2011 02:53:04 16.4 C 12.42 g/m*3 16.4 C 0 km/h
136 05-06-2011 03:05:04 16.1 C 12.2 g/m*3 16.1 C 0 km/h
137 05-06-2011 03:17:04 16 C 12.13 g/m*3 16 C 0 km/h
138 05-06-2011 03:29:04 15.7 C 11.91 g/m*3 15.7 C 0 km/h
139 05-06-2011 03:41:04 15.7 C 11.91 g/m*3 15.7 C 0 km/h
140 05-06-2011 03:53:04 15.4 C 11.69 g/m*3 15.4 C 0 km/h
141 05-06-2011 04:05:04 15.5 C 11.76 g/m*3 15.5 C 0 km/h
142 05-06-2011 04:17:04 15.5 C 11.76 g/m*3 15.5 C 0 km/h
143 05-06-2011 04:29:04 15.7 C 11.91 g/m*3 15.7 C 0 km/h
144 05-06-2011 04:41:04 15.1 C 11.48 g/m*3 15.1 C 0 km/h
145 05-06-2011 04:53:04 15.1 C 11.48 g/m*3 15.1 C 0 km/h
146 05-06-2011 05:05:04 15.2 C 11.55 g/m*3 15.2 C 0 km/h
147 05-06-2011 05:17:04 15.3 C 11.75 g/m*3 15.3 C 0 km/h
148 05-06-2011 05:29:04 15 C 11.54 g/m*3 15 C 0 km/h
149 05-06-2011 05:41:04 15.2 C 11.68 g/m*3 15.2 C 0 km/h
150 05-06-2011 05:53:04 15.6 C 11.97 g/m*3 15.6 C 0 km/h
Sensor: Nr:Datum:Temp:Abs-Feuchte:Windchill:Wind:
Aussen-T/F 151 05-06-2011 06:05:04 15.8 C 12.11 g/m*3 15.8 C 0 km/h
152 05-06-2011 06:17:04 16.1 C 12.2 g/m*3 16.1 C 0 km/h
153 05-06-2011 06:29:04 16.2 C 12.41 g/m*3 16.2 C 0 km/h
154 05-06-2011 06:41:04 16.4 C 12.56 g/m*3 16.4 C 0 km/h
155 05-06-2011 06:53:04 16.3 C 12.49 g/m*3 16.3 C 0 km/h
156 05-06-2011 07:05:05 16.3 C 12.49 g/m*3 16.3 C 0 km/h
157 05-06-2011 07:17:05 16.4 C 12.56 g/m*3 16.4 C 0 km/h
158 05-06-2011 07:29:05 16.5 C 12.5 g/m*3 16.5 C 0 km/h
159 05-06-2011 07:41:05 16.7 C 12.79 g/m*3 16.7 C 0 km/h
160 05-06-2011 07:53:05 17.4 C 13.19 g/m*3 17.4 C 0 km/h
161 05-06-2011 08:05:02 17.9 C 13.59 g/m*3 17.9 C 0 km/h
162 05-06-2011 08:17:02 18 C 13.52 g/m*3 18 C 0 km/h
163 05-06-2011 08:29:02 18.4 C 13.68 g/m*3 18.4 C 0 km/h
164 05-06-2011 08:41:02 18.5 C 13.61 g/m*3 18.5 C 0 km/h
165 05-06-2011 08:53:02 18.7 C 13.45 g/m*3 18.7 C 0 km/h
166 05-06-2011 09:05:01 18.6 C 12.73 g/m*3 18.6 C 0 km/h
167 05-06-2011 09:17:02 19.5 C 12.59 g/m*3 19.5 C 0 km/h
168 05-06-2011 09:29:02 19.9 C 12.54 g/m*3 19.9 C 0 km/h
169 05-06-2011 09:41:02 19.5 C 12.25 g/m*3 19.5 C 0 km/h
170 05-06-2011 09:53:01 19.5 C 12.42 g/m*3 19.5 C 0 km/h
171 05-06-2011 10:05:02 19.9 C 13.4 g/m*3 19.9 C 0 km/h
172 05-06-2011 10:17:02 20.2 C 13.46 g/m*3 20.2 C 0 km/h
173 05-06-2011 10:29:02 20.6 C 13.42 g/m*3 20.6 C 0 km/h
174 05-06-2011 10:41:01 21.8 C 14.01 g/m*3 21.8 C 0 km/h
175 05-06-2011 10:53:02 21.7 C 12.97 g/m*3 21.7 C 0 km/h
Sensor: Nr:Datum:Temp:Abs-Feuchte:Windchill:Wind:
Aussen-T/F 176 05-06-2011 11:05:01 21.7 C 12.97 g/m*3 21.7 C 0 km/h
177 05-06-2011 11:17:01 21.7 C 12.59 g/m*3 21.7 C 0 km/h
178 05-06-2011 11:29:02 22.2 C 12.96 g/m*3 22.2 C 0 km/h
179 05-06-2011 11:41:01 22.4 C 13.31 g/m*3 22.4 C 0 km/h
180 05-06-2011 11:53:02 23.2 C 13.1 g/m*3 23.2 C 0 km/h
181 05-06-2011 12:05:02 23.7 C 12.62 g/m*3 23.7 C 0 km/h
182 05-06-2011 12:17:02 24.1 C 12.25 g/m*3 24.1 C 0 km/h
183 05-06-2011 12:29:02 23.7 C 13.9 g/m*3 23.7 C 0 km/h
184 05-06-2011 12:41:02 24.4 C 14.02 g/m*3 24.4 C 0 km/h
185 05-06-2011 12:53:01 24.8 C 13.2 g/m*3 24.8 C 0 km/h
186 05-06-2011 13:05:02 25.3 C 14.05 g/m*3 25.3 C 0 km/h
187 05-06-2011 13:17:01 24.9 C 13.73 g/m*3 24.9 C 0 km/h
188 05-06-2011 13:29:01 24.8 C 13.88 g/m*3 24.8 C 0 km/h
189 05-06-2011 13:41:02 25 C 13.81 g/m*3 25 C 0 km/h
190 05-06-2011 13:53:02 25.6 C 15 g/m*3 25.6 C 0 km/h
191 05-06-2011 14:05:02 25.3 C 14.05 g/m*3 25.3 C 0 km/h
192 05-06-2011 14:17:01 24.7 C 15.16 g/m*3 24.7 C 0 km/h
193 05-06-2011 14:29:01 24.4 C 15.58 g/m*3 24.4 C 0 km/h
194 05-06-2011 14:41:02 27.5 C 14.55 g/m*3 27.5 C 0 km/h
195 05-06-2011 14:53:02 28.1 C 11.76 g/m*3 28.1 C 0 km/h
196 05-06-2011 15:05:02 27.7 C 13.91 g/m*3 27.7 C 0 km/h
197 05-06-2011 15:17:01 25.3 C 12.88 g/m*3 25.3 C 0 km/h
198 05-06-2011 15:29:01 23.7 C 14.33 g/m*3 23.7 C 0 km/h
199 05-06-2011 15:41:16 21.9 C 14.67 g/m*3 21.9 C 0 km/h
200 05-06-2011 15:53:16 21.1 C 14.56 g/m*3 21.1 C 0 km/h
Sensor: Nr:Datum:Temp:Abs-Feuchte:Windchill:Wind:
Aussen-T/F 201 05-06-2011 16:05:16 19.5 C 13.43 g/m*3 19.5 C 0 km/h
202 05-06-2011 16:17:16 17.4 C 12 g/m*3 17.4 C 0 km/h
203 05-06-2011 16:29:16 17.3 C 12.23 g/m*3 17.3 C 0 km/h
204 05-06-2011 16:41:16 17.6 C 12.6 g/m*3 17.6 C 0 km/h
205 05-06-2011 16:53:16 17.3 C 12.37 g/m*3 17.3 C 0 km/h
206 05-06-2011 17:05:02 17.4 C 12.6 g/m*3 17.4 C 0 km/h
207 05-06-2011 17:17:02 17.5 C 12.82 g/m*3 17.5 C 0 km/h
208 05-06-2011 17:29:02 17.7 C 12.98 g/m*3 17.7 C 0 km/h
209 05-06-2011 17:41:02 17.2 C 12.59 g/m*3 17.2 C 0 km/h
210 05-06-2011 17:53:02 17.2 C 12.59 g/m*3 17.2 C 0 km/h
211 05-06-2011 18:05:01 17.2 C 12.59 g/m*3 17.2 C 0 km/h
212 05-06-2011 18:17:02 16.9 C 12.51 g/m*3 16.9 C 0 km/h
213 05-06-2011 18:29:02 16.9 C 12.51 g/m*3 16.9 C 0 km/h
214 05-06-2011 18:41:02 16.8 C 12.44 g/m*3 16.8 C 0 km/h
215 05-06-2011 18:53:02 16.8 C 12.58 g/m*3 16.8 C 0 km/h
216 05-06-2011 19:05:03 17 C 12.59 g/m*3 17 C 0 km/h
217 05-06-2011 19:17:02 17.2 C 12.74 g/m*3 17.2 C 0 km/h
218 05-06-2011 19:29:02 17.4 C 13.04 g/m*3 17.4 C 0 km/h
219 05-06-2011 19:41:02 17.7 C 13.28 g/m*3 17.7 C 0 km/h
220 05-06-2011 19:53:01 17.8 C 13.36 g/m*3 17.8 C 0 km/h
221 05-06-2011 20:05:02 17.8 C 13.2 g/m*3 17.8 C 0 km/h
222 05-06-2011 20:17:01 17.8 C 13.2 g/m*3 17.8 C 0 km/h
223 05-06-2011 20:29:01 17.6 C 13.05 g/m*3 17.6 C 0 km/h
224 05-06-2011 20:41:02 17.3 C 12.82 g/m*3 17.3 C 0 km/h
225 05-06-2011 20:53:01 17.3 C 12.82 g/m*3 17.3 C 0 km/h
Sensor: Nr:Datum:Temp:Abs-Feuchte:Windchill:Wind:
Aussen-T/F 226 05-06-2011 21:05:02 17.2 C 12.74 g/m*3 17.2 C 0 km/h
227 05-06-2011 21:17:01 17 C 12.59 g/m*3 17 C 0 km/h
228 05-06-2011 21:29:01 16.8 C 12.58 g/m*3 16.8 C 0 km/h
229 05-06-2011 21:41:02 16.7 C 12.51 g/m*3 16.7 C 0 km/h
230 05-06-2011 21:53:01 16.7 C 12.65 g/m*3 16.7 C 0 km/h
231 05-06-2011 22:05:01 16.7 C 12.65 g/m*3 16.7 C 0 km/h
232 05-06-2011 22:17:02 16.8 C 12.72 g/m*3 16.8 C 0 km/h
233 05-06-2011 22:29:02 16.8 C 12.72 g/m*3 16.8 C 0 km/h
234 05-06-2011 22:41:01 16.4 C 12.42 g/m*3 16.4 C 0 km/h
235 05-06-2011 22:53:03 16.2 C 12.27 g/m*3 16.2 C 0 km/h
236 05-06-2011 23:06:05 16.1 C 12.2 g/m*3 16.1 C 0 km/h
237 05-06-2011 23:18:05 16 C 12.13 g/m*3 16 C 0 km/h
238 05-06-2011 23:30:05 15.9 C 12.05 g/m*3 15.9 C 0 km/h
239 05-06-2011 23:42:05 15.5 C 11.76 g/m*3 15.5 C 0 km/h
240 05-06-2011 23:54:05 15 C 11.41 g/m*3 15 C 0 km/h
241 06-06-2011 00:06:05 15.3 C 11.62 g/m*3 15.3 C 0 km/h
242 06-06-2011 00:18:05 15.3 C 11.75 g/m*3 15.3 C 0 km/h
243 06-06-2011 00:30:06 14.9 C 11.47 g/m*3 14.9 C 0 km/h
244 06-06-2011 00:42:06 15 C 11.41 g/m*3 15 C 0 km/h
245 06-06-2011 00:54:06 15 C 11.54 g/m*3 15 C 0 km/h
246 06-06-2011 01:06:06 15.1 C 11.61 g/m*3 15.1 C 0 km/h
247 06-06-2011 01:18:06 15.1 C 11.61 g/m*3 15.1 C 0 km/h
248 06-06-2011 01:30:06 14.9 C 11.6 g/m*3 14.9 C 0 km/h
249 06-06-2011 01:42:06 15 C 11.54 g/m*3 15 C 0 km/h
250 06-06-2011 01:54:06 15 C 11.54 g/m*3 15 C 0 km/h
Sensor: Nr:Datum:Temp:Abs-Feuchte:Windchill:Wind:
Aussen-T/F 251 06-06-2011 02:06:06 15.1 C 11.61 g/m*3 15.1 C 0 km/h
252 06-06-2011 02:18:06 15.1 C 11.61 g/m*3 15.1 C 0 km/h
253 06-06-2011 02:30:06 15.1 C 11.61 g/m*3 15.1 C 0 km/h
254 06-06-2011 02:42:06 15 C 11.54 g/m*3 15 C 0 km/h
255 06-06-2011 02:54:06 15 C 11.54 g/m*3 15 C 0 km/h
256 06-06-2011 03:06:06 15.1 C 11.61 g/m*3 15.1 C 0 km/h
257 06-06-2011 03:18:06 14.9 C 11.6 g/m*3 14.9 C 0 km/h
258 06-06-2011 03:30:06 15 C 11.54 g/m*3 15 C 0 km/h
259 06-06-2011 03:42:06 14.5 C 11.32 g/m*3 14.5 C 0 km/h
260 06-06-2011 03:54:06 14.4 C 11.25 g/m*3 14.4 C 0 km/h
261 06-06-2011 04:06:06 14.4 C 11.25 g/m*3 14.4 C 0 km/h
262 06-06-2011 04:18:06 13.8 C 10.84 g/m*3 13.8 C 0 km/h
263 06-06-2011 04:30:06 14 C 10.98 g/m*3 14 C 0 km/h
264 06-06-2011 04:42:07 14 C 10.98 g/m*3 14 C 0 km/h
265 06-06-2011 04:54:07 13.7 C 10.78 g/m*3 13.7 C 0 km/h
266 06-06-2011 05:06:07 14 C 10.98 g/m*3 14 C 0 km/h
267 06-06-2011 05:18:07 13.6 C 10.71 g/m*3 13.6 C 0 km/h
268 06-06-2011 05:30:07 13.6 C 10.71 g/m*3 13.6 C 0 km/h
269 06-06-2011 05:42:07 13.5 C 10.64 g/m*3 13.5 C 0 km/h
270 06-06-2011 05:54:07 13.7 C 10.78 g/m*3 13.7 C 0 km/h
271 06-06-2011 06:06:07 13.7 C 10.78 g/m*3 13.7 C 0 km/h
272 06-06-2011 06:18:07 14 C 10.98 g/m*3 14 C 0 km/h
273 06-06-2011 06:30:07 14.2 C 11.11 g/m*3 14.2 C 0 km/h
274 06-06-2011 06:42:07 14.4 C 11.25 g/m*3 14.4 C 0 km/h
275 06-06-2011 06:54:07 14.8 C 11.53 g/m*3 14.8 C 0 km/h
Sensor: Nr:Datum:Temp:Abs-Feuchte:Windchill:Wind:
Aussen-T/F 276 06-06-2011 07:06:07 14.9 C 11.6 g/m*3 14.9 C 0 km/h
277 06-06-2011 07:18:04 15.2 C 11.68 g/m*3 15.2 C 0 km/h
278 06-06-2011 07:30:04 15.4 C 11.82 g/m*3 15.4 C 0 km/h
279 06-06-2011 07:42:04 15.5 C 11.9 g/m*3 15.5 C 0 km/h
280 06-06-2011 07:54:03 15.7 C 12.04 g/m*3 15.7 C 0 km/h
281 06-06-2011 08:06:02 16.1 C 12.34 g/m*3 16.1 C 0 km/h
282 06-06-2011 08:18:02 16.8 C 12.87 g/m*3 16.8 C 0 km/h
283 06-06-2011 08:30:02 17 C 12.88 g/m*3 17 C 0 km/h
284 06-06-2011 08:42:02 18.3 C 13.76 g/m*3 18.3 C 0 km/h
285 06-06-2011 08:54:02 18.1 C 13.44 g/m*3 18.1 C 0 km/h
286 06-06-2011 09:06:01 18.3 C 13.29 g/m*3 18.3 C 0 km/h
287 06-06-2011 09:18:02 18.1 C 12.82 g/m*3 18.1 C 0 km/h
288 06-06-2011 09:30:02 18.1 C 12.98 g/m*3 18.1 C 0 km/h
289 06-06-2011 09:42:02 18.3 C 12.98 g/m*3 18.3 C 0 km/h
290 06-06-2011 09:54:02 18.8 C 13.37 g/m*3 18.8 C 0 km/h
291 06-06-2011 10:06:02 19 C 13.53 g/m*3 19 C 0 km/h
292 06-06-2011 10:18:02 19.6 C 13.34 g/m*3 19.6 C 0 km/h
293 06-06-2011 10:30:02 20.7 C 13.14 g/m*3 20.7 C 0 km/h
294 06-06-2011 10:42:02 21.3 C 11.93 g/m*3 21.3 C 0 km/h
295 06-06-2011 10:54:02 21.4 C 12 g/m*3 21.4 C 0 km/h
296 06-06-2011 11:06:02 21.9 C 11.77 g/m*3 21.9 C 0 km/h
297 06-06-2011 11:18:02 22.9 C 10.83 g/m*3 22.9 C 0 km/h
298 06-06-2011 11:30:02 21.5 C 10.75 g/m*3 21.5 C 0 km/h
299 06-06-2011 11:42:02 22.3 C 10.86 g/m*3 22.3 C 0 km/h
300 06-06-2011 11:54:02 22.9 C 11.24 g/m*3 22.9 C 0 km/h
Sensor: Nr:Datum:Temp:Abs-Feuchte:Windchill:Wind:
Aussen-T/F 301 06-06-2011 12:06:02 23 C 11.1 g/m*3 23 C 0 km/h
302 06-06-2011 12:18:02 22.9 C 10.83 g/m*3 22.9 C 0 km/h
303 06-06-2011 12:30:02 23.5 C 10.79 g/m*3 23.5 C 0 km/h
304 06-06-2011 12:42:02 23.9 C 11.03 g/m*3 23.9 C 0 km/h
305 06-06-2011 12:54:02 24.2 C 10.78 g/m*3 24.2 C 0 km/h
306 06-06-2011 13:06:01 24.6 C 11.25 g/m*3 24.6 C 0 km/h
307 06-06-2011 13:18:02 24.6 C 10.35 g/m*3 24.6 C 0 km/h
308 06-06-2011 13:30:02 29.1 C 10.11 g/m*3 29.1 C 0 km/h
309 06-06-2011 13:42:01 27.8 C 9.95 g/m*3 27.8 C 0 km/h
310 06-06-2011 13:54:02 27 C 9.01 g/m*3 27 C 0 km/h
311 06-06-2011 14:06:01 28.3 C 9.68 g/m*3 28.3 C 0 km/h
312 06-06-2011 14:18:01 27.3 C 9.42 g/m*3 27.3 C 0 km/h
313 06-06-2011 14:30:01 26.7 C 9.37 g/m*3 26.7 C 0 km/h
314 06-06-2011 14:42:02 26.4 C 8.96 g/m*3 26.4 C 0 km/h
315 06-06-2011 14:54:02 26.5 C 10.01 g/m*3 26.5 C 0 km/h
316 06-06-2011 15:06:02 26.2 C 8.86 g/m*3 26.2 C 0 km/h
317 06-06-2011 15:18:01 25.8 C 9.87 g/m*3 25.8 C 0 km/h
318 06-06-2011 15:30:01 25.5 C 11.6 g/m*3 25.5 C 0 km/h
319 06-06-2011 15:42:02 27.2 C 10.15 g/m*3 27.2 C 0 km/h
320 06-06-2011 15:54:02 25.1 C 9.26 g/m*3 25.1 C 0 km/h
321 06-06-2011 16:06:02 24.8 C 10.24 g/m*3 24.8 C 0 km/h
322 06-06-2011 16:18:01 25.1 C 10.19 g/m*3 25.1 C 0 km/h
323 06-06-2011 16:30:01 26.1 C 10.28 g/m*3 26.1 C 0 km/h
324 06-06-2011 16:42:02 25.8 C 10.11 g/m*3 25.8 C 0 km/h
325 06-06-2011 16:54:02 23 C 8.63 g/m*3 23 C 0 km/h
Sensor: Nr:Datum:Temp:Abs-Feuchte:Windchill:Wind:
Aussen-T/F 326 06-06-2011 17:06:02 21.1 C 8.84 g/m*3 21.1 C 0 km/h
327 06-06-2011 17:18:01 18 C 9.83 g/m*3 18 C 0 km/h
328 06-06-2011 17:30:01 16.9 C 10.79 g/m*3 16.9 C 0 km/h
329 06-06-2011 17:42:02 16.4 C 10.89 g/m*3 16.4 C 0 km/h
330 06-06-2011 17:54:01 16.3 C 11.38 g/m*3 16.3 C 0 km/h
331 06-06-2011 18:06:02 16.4 C 11.72 g/m*3 16.4 C 0 km/h
332 06-06-2011 18:18:02 17 C 12.01 g/m*3 17 C 0 km/h
333 06-06-2011 18:30:02 16.8 C 12.01 g/m*3 16.8 C 0 km/h
334 06-06-2011 18:42:01 17.2 C 12.3 g/m*3 17.2 C 0 km/h
335 06-06-2011 18:54:02 17.2 C 12.3 g/m*3 17.2 C 0 km/h
336 06-06-2011 19:06:01 17.2 C 12.3 g/m*3 17.2 C 0 km/h
337 06-06-2011 19:18:02 17.5 C 12.67 g/m*3 17.5 C 0 km/h
338 06-06-2011 19:30:03 17.8 C 12.9 g/m*3 17.8 C 0 km/h
339 06-06-2011 19:42:01 18.1 C 12.82 g/m*3 18.1 C 0 km/h
340 06-06-2011 19:54:02 18.1 C 12.82 g/m*3 18.1 C 0 km/h
341 06-06-2011 20:06:02 18.1 C 12.67 g/m*3 18.1 C 0 km/h
342 06-06-2011 20:18:02 18.1 C 12.67 g/m*3 18.1 C 0 km/h
343 06-06-2011 20:30:02 18.1 C 12.67 g/m*3 18.1 C 0 km/h
344 06-06-2011 20:42:49 17.5 C 12.52 g/m*3 17.5 C 0 km/h
345 06-06-2011 20:54:49 17.2 C 12.45 g/m*3 17.2 C 0 km/h
346 06-06-2011 21:06:49 16.8 C 12.15 g/m*3 16.8 C 0 km/h
347 06-06-2011 21:18:03 16.5 C 12.08 g/m*3 16.5 C 0 km/h
348 06-06-2011 21:30:03 16.3 C 11.93 g/m*3 16.3 C 0 km/h
349 06-06-2011 21:42:02 16.2 C 12 g/m*3 16.2 C 0 km/h
350 06-06-2011 21:55:02 15.9 C 11.78 g/m*3 15.9 C 0 km/h
Sensor: Nr:Datum:Temp:Abs-Feuchte:Windchill:Wind:
Aussen-T/F 351 06-06-2011 22:07:02 15.9 C 11.92 g/m*3 15.9 C 0 km/h
352 06-06-2011 22:19:02 15.6 C 11.7 g/m*3 15.6 C 0 km/h
353 06-06-2011 22:31:02 15.3 C 11.49 g/m*3 15.3 C 0 km/h
354 06-06-2011 22:43:02 15.8 C 11.98 g/m*3 15.8 C 0 km/h
355 06-06-2011 22:55:02 15.6 C 11.84 g/m*3 15.6 C 0 km/h
356 06-06-2011 23:07:03 15.5 C 11.76 g/m*3 15.5 C 0 km/h
357 06-06-2011 23:19:03 15.7 C 11.91 g/m*3 15.7 C 0 km/h
358 06-06-2011 23:31:03 15.6 C 11.84 g/m*3 15.6 C 0 km/h
359 06-06-2011 23:43:03 15.6 C 11.84 g/m*3 15.6 C 0 km/h
360 06-06-2011 23:55:03 15.4 C 11.69 g/m*3 15.4 C 0 km/h

Legende:
   Min
   Max


Maximal/Minimal-Werte vom 04.06.2011 - 06.06.2011

Sensor Min Max Avg
Temp
(Aussen-T/F)
13.5 °C
06-06-2011  05:42:07
33.2 °C
04-06-2011  14:04:02
19.41 °C
Abs-Feuchte
(Aussen-T/F)
6.68 g/m*3
04-06-2011  14:16:02
15.58 g/m*3
05-06-2011  14:29:01
11.33 g/m*3
Windchill
(Aussen-T/F)
13.5 C
06-06-2011  05:42:07
33.2 C
04-06-2011  14:04:02
19.35 C

Die Daten stammen von einer Davis Vantage Pro 2 Wetter-Station und werden unter Linux mit der Software wview2wettercgi und aufbereitet. Alle Angaben erfolgen ohne Gewähr für ihre Vollständigkeit oder Richtigkeit.
Kontakt: Rainer Krienke krienke@uni-koblenz.de . Meine Webseiten an der Uni Koblenz oder privat.
Version: $Revision: 0.78 $